Time;durP1;ratioP1;P1;durP2;ratioP2;P2;SDS_P1;SDS_P2;PMS_P1;PMS_P2;Temp;Humidity;BMP_temperature;BMP_pressure;BME280_temperature;BME280_humidity;BME280_pressure;Samples;Min_cycle;Max_cycle;Signal;HPM_P1;HPM_P2
2021/06/26 00:02:17;;;;;;;1999.90;999.90;;;;;;;19.67;95.09;98377.81;5017626;28;20435;-65
2021/06/26 00:04:44;;;;;;;1999.90;999.90;;;;;;;19.66;94.93;98381.00;5019906;28;20123;-65
2021/06/26 00:07:10;;;;;;;1999.90;999.90;;;;;;;19.35;96.38;98377.47;5014918;28;20328;-65
2021/06/26 00:09:37;;;;;;;1999.90;999.90;;;;;;;19.50;95.79;98379.25;5025448;28;20054;-65
2021/06/26 00:12:04;;;;;;;1999.90;999.90;;;;;;;19.51;96.08;98377.25;5023213;28;20042;-65
2021/06/26 00:14:30;;;;;;;1999.90;999.90;;;;;;;19.61;95.06;98376.56;5017954;28;20072;-65
2021/06/26 00:16:57;;;;;;;1999.90;999.90;;;;;;;19.53;95.69;98375.69;5015846;28;20053;-65
2021/06/26 00:19:24;;;;;;;1999.90;999.90;;;;;;;19.40;95.83;98376.31;5015164;28;20050;-66
2021/06/26 00:21:50;;;;;;;1999.90;999.90;;;;;;;19.34;96.22;98371.09;5018114;28;20049;-66
2021/06/26 00:24:17;;;;;;;1999.90;999.90;;;;;;;19.30;96.73;98367.44;5024668;28;20112;-66
2021/06/26 00:26:43;;;;;;;1999.90;999.90;;;;;;;19.12;98.00;98361.63;5018374;28;20049;-64
2021/06/26 00:29:10;;;;;;;1999.90;999.90;;;;;;;19.29;97.12;98371.44;5018585;28;20672;-66
2021/06/26 00:31:36;;;;;;;1999.90;999.90;;;;;;;19.46;95.87;98374.81;5017170;28;20114;-66
2021/06/26 00:34:03;;;;;;;1999.90;999.90;;;;;;;;;;5013078;28;20412;-65
2021/06/26 00:36:30;;;;;;;1999.90;999.90;;;;;;;19.13;97.75;98373.63;5021647;28;20041;-65
2021/06/26 00:38:56;;;;;;;1999.90;999.90;;;;;;;19.17;98.05;98380.91;5019680;28;20045;-65
2021/06/26 00:41:23;;;;;;;1999.90;999.90;;;;;;;19.07;98.75;98375.16;5014434;28;20398;-65
2021/06/26 00:43:49;;;;;;;1999.90;999.90;;;;;;;19.30;97.90;98383.44;5017063;28;20042;-65
2021/06/26 00:46:16;;;;;;;1999.90;999.90;;;;;;;19.40;97.03;98395.94;5017912;28;20096;-65
2021/06/26 00:48:43;;;;;;;1999.90;999.90;;;;;;;19.59;96.49;98400.56;5020852;28;20085;-65
2021/06/26 00:51:10;;;;;;;1999.90;999.90;;;;;;;19.40;96.60;98390.34;5023195;28;20107;-65
2021/06/26 00:53:37;;;;;;;1999.90;999.90;;;;;;;19.62;96.21;98405.41;5018924;28;20091;-65
2021/06/26 00:56:04;;;;;;;1999.90;999.90;;;;;;;19.73;95.14;98411.94;5012674;28;20042;-66
2021/06/26 00:58:31;;;;;;;1999.90;999.90;;;;;;;19.44;96.54;98405.22;5017919;28;20155;-65
2021/06/26 01:00:57;;;;;;;1999.90;999.90;;;;;;;19.52;96.97;98416.13;5026952;28;20115;-65
2021/06/26 01:03:24;;;;;;;1999.90;999.90;;;;;;;19.69;95.95;98409.09;5012478;28;20042;-65
2021/06/26 01:05:51;;;;;;;1999.90;999.90;;;;;;;19.76;95.57;98416.78;5015997;28;20095;-65
2021/06/26 01:08:18;;;;;;;1999.90;999.90;;;;;;;19.45;97.30;98407.63;5026980;28;20042;-65
2021/06/26 01:10:44;;;;;;;1999.90;999.90;;;;;;;19.52;97.44;98412.53;5015406;28;20053;-66
2021/06/26 01:13:11;;;;;;;1999.90;999.90;;;;;;;19.62;96.46;98417.44;5022676;28;20061;-66
2021/06/26 01:15:38;;;;;;;1999.90;999.90;;;;;;;19.68;96.76;98413.09;5024485;28;20406;-66
2021/06/26 01:18:05;;;;;;;1999.90;999.90;;;;;;;19.58;96.85;98402.56;5014147;28;20042;-66
2021/06/26 01:20:32;;;;;;;1999.90;999.90;;;;;;;19.36;98.23;98399.53;5017113;28;20077;-67
2021/06/26 01:22:59;;;;;;;1999.90;999.90;;;;;;;19.32;99.06;98392.28;5017887;28;20046;-66
2021/06/26 01:25:28;;;;;;;1999.90;999.90;;;;;;;19.66;97.72;98387.41;5013652;28;20054;-66
2021/06/26 01:27:56;;;;;;;1999.90;999.90;;;;;;;19.65;96.89;98394.25;5017978;28;20099;-66
2021/06/26 01:30:33;;;;;;;1999.90;999.90;;;;;;;19.74;96.88;98393.91;5022921;28;20451;-65
2021/06/26 01:33:02;;;;;;;1999.90;999.90;;;;;;;19.84;95.93;98395.22;5012803;28;20062;-65
2021/06/26 01:35:29;;;;;;;1999.90;999.90;;;;;;;19.87;96.26;98389.66;5020845;28;20392;-65
2021/06/26 01:37:56;;;;;;;1999.90;999.90;;;;;;;19.79;95.88;98392.78;5015891;28;20050;-64
2021/06/26 01:40:25;;;;;;;1999.90;999.90;;;;;;;19.77;96.68;98395.13;5014155;28;20050;-65
2021/06/26 01:42:53;;;;;;;1999.90;999.90;;;;;;;19.78;96.41;98389.16;5025794;28;20103;-65
2021/06/26 01:45:20;;;;;;;1999.90;999.90;;;;;;;19.58;97.75;98399.78;5021809;28;20045;-65
2021/06/26 01:47:58;;;;;;;1999.90;999.90;;;;;;;19.39;98.61;98400.75;5019889;28;20127;-65
2021/06/26 01:50:27;;;;;;;1999.90;999.90;;;;;;;19.73;97.17;98394.31;5019647;28;20346;-65
2021/06/26 01:52:55;;;;;;;1999.90;999.90;;;;;;;20.01;95.72;98396.59;5017758;28;20442;-65
2021/06/26 01:55:23;;;;;;;1999.90;999.90;;;;;;;20.00;95.37;98398.56;5014253;28;20037;-66
2021/06/26 01:57:51;;;;;;;1999.90;999.90;;;;;;;20.06;95.09;98402.63;5013992;28;20098;-65
2021/06/26 02:00:20;;;;;;;1999.90;999.90;;;;;;;19.86;96.52;98398.47;5016565;28;20046;-64
2021/06/26 02:02:47;;;;;;;1999.90;999.90;;;;;;;20.11;94.45;98397.88;5018552;28;20050;-64
2021/06/26 02:05:17;;;;;;;1999.90;999.90;;;;;;;20.06;94.90;98401.84;5029085;28;20076;-65
2021/06/26 02:07:47;;;;;;;1999.90;999.90;;;;;;;20.05;94.58;98400.22;5016235;28;20049;-65
2021/06/26 02:10:14;;;;;;;1999.90;999.90;;;;;;;20.13;94.47;98403.91;5017052;28;20131;-65
2021/06/26 02:12:42;;;;;;;1999.90;999.90;;;;;;;20.17;93.99;98399.13;5030342;28;20127;-65
2021/06/26 02:15:09;;;;;;;1999.90;999.90;;;;;;;20.12;93.89;98399.47;5015202;28;20042;-66
2021/06/26 02:17:36;;;;;;;1999.90;999.90;;;;;;;19.82;95.32;98400.44;5029431;28;20219;-66
2021/06/26 02:20:07;;;;;;;1999.90;999.90;;;;;;;20.14;94.15;98399.88;5031352;28;20049;-66
2021/06/26 02:22:34;;;;;;;1999.90;999.90;;;;;;;20.29;93.13;98398.81;5015347;28;20054;-66
2021/06/26 02:25:04;;;;;;;1999.90;999.90;;;;;;;20.20;94.00;98407.56;5014345;28;20116;-66
2021/06/26 02:27:32;;;;;;;1999.90;999.90;;;;;;;20.25;93.17;98406.41;5012740;28;20045;-64
2021/06/26 02:29:59;;;;;;;1999.90;999.90;;;;;;;20.01;94.11;98408.63;5026575;28;20107;-64
2021/06/26 02:32:25;;;;;;;1999.90;999.90;;;;;;;20.02;94.25;98403.81;5019844;28;20177;-64
2021/06/26 02:34:53;;;;;;;1999.90;999.90;;;;;;;20.07;94.67;98414.69;5014846;28;20081;-64
2021/06/26 02:37:21;;;;;;;1999.90;999.90;;;;;;;20.04;94.00;98415.47;5014097;28;20127;-66
2021/06/26 02:39:47;;;;;;;1999.90;999.90;;;;;;;19.80;95.69;98412.03;5015897;28;20045;-66
2021/06/26 02:42:14;;;;;;;1999.90;999.90;;;;;;;19.90;94.75;98413.31;5015228;28;20448;-66
2021/06/26 02:44:40;;;;;;;1999.90;999.90;;;;;;;20.03;94.63;98419.47;5012000;28;20085;-66
2021/06/26 02:47:07;;;;;;;1999.90;999.90;;;;;;;20.19;93.61;98416.38;5014700;28;20104;-66
2021/06/26 02:49:34;;;;;;;1999.90;999.90;;;;;;;20.16;93.62;98417.97;5019417;28;21066;-66
2021/06/26 02:52:00;;;;;;;1999.90;999.90;;;;;;;20.02;93.57;98412.22;5016052;28;20098;-66
2021/06/26 02:54:27;;;;;;;1999.90;999.90;;;;;;;20.22;92.86;98416.41;5020061;28;20092;-66
2021/06/26 02:56:53;;;;;;;1999.90;999.90;;;;;;;20.10;92.93;98418.69;5018960;28;20046;-66
2021/06/26 02:59:20;;;;;;;1999.90;999.90;;;;;;;20.06;93.28;98425.09;5019401;28;20597;-66
2021/06/26 03:01:46;;;;;;;1999.90;999.90;;;;;;;19.79;94.94;98418.03;5026270;28;20226;-66
2021/06/26 03:04:13;;;;;;;1999.90;999.90;;;;;;;19.74;94.95;98418.34;5023669;28;20042;-66
2021/06/26 03:06:39;;;;;;;1999.90;999.90;;;;;;;19.84;94.80;98424.13;5015499;28;20317;-66
2021/06/26 03:09:06;;;;;;;1999.90;999.90;;;;;;;19.67;94.91;98424.69;5017114;28;20533;-66
2021/06/26 03:11:33;;;;;;;1999.90;999.90;;;;;;;19.70;94.83;98424.72;5019577;28;20424;-66
2021/06/26 03:13:59;;;;;;;1999.90;999.90;;;;;;;19.67;94.98;98424.69;5019252;28;20096;-66
2021/06/26 03:16:26;;;;;;;1999.90;999.90;;;;;;;19.77;94.27;98435.22;5024854;28;20049;-66
2021/06/26 03:18:52;;;;;;;1999.90;999.90;;;;;;;19.73;94.50;98442.78;5018323;28;20179;-66
2021/06/26 03:21:19;;;;;;;1999.90;999.90;;;;;;;19.74;94.42;98443.59;5015779;28;20374;-66
2021/06/26 03:23:45;;;;;;;1999.90;999.90;;;;;;;19.84;94.15;98440.94;5020275;28;20139;-66
2021/06/26 03:26:12;;;;;;;1999.90;999.90;;;;;;;19.91;93.98;98459.84;5018978;28;20477;-66
2021/06/26 03:28:38;;;;;;;1999.90;999.90;;;;;;;19.74;94.42;98452.00;5015530;28;20045;-66
2021/06/26 03:31:09;;;;;;;1999.90;999.90;;;;;;;19.84;93.41;98452.16;5020662;28;20143;-66
2021/06/26 03:33:37;;;;;;;1999.90;999.90;;;;;;;19.84;93.13;98457.78;5017883;28;20056;-66
2021/06/26 03:36:04;;;;;;;1999.90;999.90;;;;;;;19.88;93.38;98463.41;5018787;28;20041;-64
2021/06/26 03:38:30;;;;;;;1999.90;999.90;;;;;;;19.96;92.50;98465.06;5017257;28;20734;-63
2021/06/26 03:40:57;;;;;;;1999.90;999.90;;;;;;;19.73;93.25;98470.84;5017611;28;20343;-63
2021/06/26 03:43:23;;;;;;;1999.90;999.90;;;;;;;19.54;94.60;98466.22;5021324;28;20050;-64
2021/06/26 03:45:50;;;;;;;1999.90;999.90;;;;;;;19.68;93.81;98466.38;5017493;28;20034;-63
2021/06/26 03:48:17;;;;;;;1999.90;999.90;;;;;;;19.81;93.14;98458.53;5018056;28;20092;-64
2021/06/26 03:50:43;;;;;;;1999.90;999.90;;;;;;;19.88;92.93;98457.81;5014898;28;20101;-63
2021/06/26 03:53:10;;;;;;;1999.90;999.90;;;;;;;19.55;94.24;98465.03;5019005;28;20323;-64
2021/06/26 03:55:37;;;;;;;1999.90;999.90;;;;;;;19.80;93.16;98461.72;5018475;28;20104;-64
2021/06/26 03:58:03;;;;;;;1999.90;999.90;;;;;;;19.65;93.90;98466.34;5030882;28;20072;-65
2021/06/26 04:00:30;;;;;;;1999.90;999.90;;;;;;;19.83;93.06;98461.75;5016668;28;20478;-65
2021/06/26 04:02:57;;;;;;;1999.90;999.90;;;;;;;19.61;93.68;98457.88;5020056;28;20049;-65
2021/06/26 04:05:24;;;;;;;1999.90;999.90;;;;;;;19.88;93.05;98457.81;5022214;28;20397;-65
2021/06/26 04:07:50;;;;;;;1999.90;999.90;;;;;;;20.09;91.93;98445.16;5014873;28;20119;-65
2021/06/26 04:10:17;;;;;;;1999.90;999.90;;;;;;;20.04;92.03;98447.13;5020682;28;20049;-65
2021/06/26 04:12:44;;;;;;;1999.90;999.90;;;;;;;20.07;92.63;98439.94;5026906;28;20563;-65
2021/06/26 04:15:11;;;;;;;1999.90;999.90;;;;;;;20.19;91.42;98441.66;5026331;28;20085;-66
2021/06/26 04:17:38;;;;;;;1999.90;999.90;;;;;;;20.01;92.19;98450.72;5019092;28;20103;-65
2021/06/26 04:20:05;;;;;;;1999.90;999.90;;;;;;;20.21;91.35;98444.88;5029273;28;20279;-65
2021/06/26 04:22:32;;;;;;;1999.90;999.90;;;;;;;20.06;91.74;98447.53;5018775;28;20053;-65
2021/06/26 04:24:58;;;;;;;1999.90;999.90;;;;;;;20.18;91.65;98448.44;5019911;28;20811;-65
2021/06/26 04:27:25;;;;;;;1999.90;999.90;;;;;;;20.29;90.72;98448.53;5014499;28;20054;-65
2021/06/26 04:29:51;;;;;;;1999.90;999.90;;;;;;;19.99;92.21;98452.28;5015861;28;20050;-65
2021/06/26 04:32:18;;;;;;;1999.90;999.90;;;;;;;19.82;93.53;98448.13;5016903;28;20046;-65
2021/06/26 04:34:44;;;;;;;1999.90;999.90;;;;;;;20.09;91.87;98442.38;5016628;28;20111;-65
2021/06/26 04:37:11;;;;;;;1999.90;999.90;;;;;;;19.76;93.57;98449.63;5015180;28;20057;-65
2021/06/26 04:39:37;;;;;;;1999.90;999.90;;;;;;;19.85;93.20;98447.34;5016790;28;20716;-65
2021/06/26 04:42:04;;;;;;;1999.90;999.90;;;;;;;19.79;93.72;98438.47;5021838;28;20045;-65
2021/06/26 04:44:31;;;;;;;1999.90;999.90;;;;;;;19.97;93.18;98441.44;5014338;28;20058;-65
2021/06/26 04:46:57;;;;;;;1999.90;999.90;;;;;;;20.15;92.16;98440.81;5016573;28;20053;-65
2021/06/26 04:49:27;;;;;;;1999.90;999.90;;;;;;;20.38;91.58;98447.03;5024563;28;20049;-65
2021/06/26 04:51:53;;;;;;;1999.90;999.90;;;;;;;20.47;91.08;98429.00;5014436;28;20107;-65
2021/06/26 04:54:20;;;;;;;1999.90;999.90;;;;;;;20.19;92.00;98428.41;5021109;28;20111;-65
2021/06/26 04:56:47;;;;;;;1999.90;999.90;;;;;;;20.43;90.63;98433.81;5030081;28;20072;-66
2021/06/26 04:59:13;;;;;;;1999.90;999.90;;;;;;;20.46;90.28;98430.22;5015858;28;20449;-65
2021/06/26 05:01:40;;;;;;;1999.90;999.90;;;;;;;20.41;90.95;98431.41;5023898;28;20100;-65
2021/06/26 05:04:06;;;;;;;1999.90;999.90;;;;;;;20.79;89.50;98422.84;5026395;28;20125;-65
2021/06/26 05:06:33;;;;;;;1999.90;999.90;;;;;;;20.67;90.32;98424.78;5013608;28;20050;-65
2021/06/26 05:09:00;;;;;;;1999.90;999.90;;;;;;;20.54;89.77;98417.84;5016261;28;20131;-65
2021/06/26 05:11:26;;;;;;;1999.90;999.90;;;;;;;20.65;89.15;98415.91;5022403;28;20095;-67
2021/06/26 05:13:53;;;;;;;1999.90;999.90;;;;;;;20.53;90.28;98413.44;5012800;28;20116;-65
2021/06/26 05:16:19;;;;;;;1999.90;999.90;;;;;;;20.24;90.96;98413.22;5016840;28;20073;-66
2021/06/26 05:18:46;;;;;;;1999.90;999.90;;;;;;;20.49;90.25;98413.38;5017785;28;20602;-64
2021/06/26 05:21:13;;;;;;;1999.90;999.90;;;;;;;20.87;88.11;98404.81;5012163;28;20096;-65
2021/06/26 05:23:39;;;;;;;1999.90;999.90;;;;;;;20.78;89.26;98415.59;5018707;28;20050;-64
2021/06/26 05:26:09;;;;;;;1999.90;999.90;;;;;;;21.01;87.51;98404.88;5017228;28;20447;-65
2021/06/26 05:28:37;;;;;;;1999.90;999.90;;;;;;;21.21;86.71;98421.44;5013168;28;20355;-65
2021/06/26 05:31:04;;;;;;;1999.90;999.90;;;;;;;20.60;88.55;98430.31;5018366;28;20116;-66
2021/06/26 05:33:31;;;;;;;1999.90;999.90;;;;;;;20.73;88.42;98422.41;5016792;28;20045;-65
2021/06/26 05:35:58;;;;;;;1999.90;999.90;;;;;;;21.13;87.91;98428.25;5011231;28;20389;-65
2021/06/26 05:38:25;;;;;;;1999.90;999.90;;;;;;;21.51;85.86;98425.97;5016319;28;20053;-65
2021/06/26 05:40:51;;;;;;;1999.90;999.90;;;;;;;21.77;86.42;98422.81;5018274;28;20107;-65
2021/06/26 05:43:18;;;;;;;1999.90;999.90;;;;;;;21.99;84.03;98420.84;5013501;28;20042;-66
2021/06/26 05:45:44;;;;;;;1999.90;999.90;;;;;;;21.92;83.38;98425.66;5025777;28;20099;-64
2021/06/26 05:48:11;;;;;;;1999.90;999.90;;;;;;;21.75;82.75;98430.88;5026459;28;20354;-64
2021/06/26 05:50:38;;;;;;;1999.90;999.90;;;;;;;21.75;82.65;98439.31;5014278;28;20092;-63
2021/06/26 05:53:04;;;;;;;1999.90;999.90;;;;;;;21.36;84.44;98450.41;5020073;28;20076;-64
2021/06/26 05:55:31;;;;;;;1999.90;999.90;;;;;;;21.60;83.48;98455.34;5033685;28;20328;-64
2021/06/26 05:57:58;;;;;;;1999.90;999.90;;;;;;;21.62;84.13;98452.16;5013441;28;20057;-64
2021/06/26 06:00:27;;;;;;;1999.90;999.90;;;;;;;21.75;83.96;98452.56;5017095;28;20065;-64
2021/06/26 06:02:54;;;;;;;1999.90;999.90;;;;;;;21.35;84.54;98463.66;5017185;28;20111;-64
2021/06/26 06:05:20;;;;;;;1999.90;999.90;;;;;;;20.86;86.46;98462.22;5014506;28;20120;-65
2021/06/26 06:07:47;;;;;;;1999.90;999.90;;;;;;;21.11;85.47;98465.97;5017658;28;20107;-64
2021/06/26 06:10:18;;;;;;;1999.90;999.90;;;;;;;21.33;84.27;98466.06;5022240;28;20116;-64
2021/06/26 06:12:44;;;;;;;1999.90;999.90;;;;;;;21.46;83.68;98464.50;5023078;28;20049;-64
2021/06/26 06:15:12;;;;;;;1999.90;999.90;;;;;;;21.25;84.59;98465.22;5014251;28;20058;-66
2021/06/26 06:17:39;;;;;;;1999.90;999.90;;;;;;;21.25;85.11;98470.06;5018141;28;20045;-66
2021/06/26 06:20:07;;;;;;;1999.90;999.90;;;;;;;21.31;84.26;98457.22;5014410;28;20088;-66
2021/06/26 06:22:34;;;;;;;1999.90;999.90;;;;;;;21.37;84.90;98452.81;5022103;28;20049;-66
2021/06/26 06:25:03;;;;;;;1999.90;999.90;;;;;;;21.38;84.82;98451.63;5021218;28;20403;-66
2021/06/26 06:27:29;;;;;;;1999.90;999.90;;;;;;;21.28;85.68;98458.81;5018996;28;20078;-66
2021/06/26 06:29:56;;;;;;;1999.90;999.90;;;;;;;21.14;85.63;98460.75;5020766;28;20104;-66
2021/06/26 06:32:22;;;;;;;1999.90;999.90;;;;;;;21.35;85.26;98448.78;5019135;28;20077;-66
2021/06/26 06:34:49;;;;;;;1999.90;999.90;;;;;;;21.37;84.85;98461.25;5017909;28;20053;-66
2021/06/26 06:37:16;;;;;;;1999.90;999.90;;;;;;;21.33;83.65;98460.44;5023267;28;20057;-66
2021/06/26 06:39:43;;;;;;;1999.90;999.90;;;;;;;21.38;83.53;98457.25;5020927;28;20435;-66
2021/06/26 06:42:10;;;;;;;1999.90;999.90;;;;;;;21.71;83.07;98463.03;5017747;28;20042;-66
2021/06/26 06:44:36;;;;;;;1999.90;999.90;;;;;;;21.55;83.49;98466.19;5022945;28;20119;-66
2021/06/26 06:47:03;;;;;;;1999.90;999.90;;;;;;;21.88;82.73;98464.25;5023385;28;20042;-66
2021/06/26 06:49:30;;;;;;;1999.90;999.90;;;;;;;22.03;82.01;98468.69;5022930;28;20049;-64
2021/06/26 06:51:57;;;;;;;1999.90;999.90;;;;;;;22.09;82.07;98471.94;5015363;28;20049;-66
2021/06/26 06:54:23;;;;;;;1999.90;999.90;;;;;;;22.05;83.84;98471.94;5018577;28;20038;-63
2021/06/26 06:56:50;;;;;;;1999.90;999.90;;;;;;;21.92;82.84;98473.53;5020383;28;20493;-66
2021/06/26 06:59:17;;;;;;;1999.90;999.90;;;;;;;22.26;82.38;98473.16;5020300;28;20103;-63
2021/06/26 07:01:43;;;;;;;1999.90;999.90;;;;;;;22.22;81.58;98470.31;5023660;28;20450;-65
2021/06/26 07:04:10;;;;;;;1999.90;999.90;;;;;;;21.69;83.81;98471.88;5027286;28;20057;-66
2021/06/26 07:06:36;;;;;;;1999.90;999.90;;;;;;;21.91;83.13;98471.91;5024136;28;20202;-65
2021/06/26 07:09:03;;;;;;;1999.90;999.90;;;;;;;22.48;82.22;98474.81;5018611;28;20413;-65
2021/06/26 07:11:30;;;;;;;1999.90;999.90;;;;;;;22.58;80.81;98478.00;5020492;28;20077;-65
2021/06/26 07:13:57;;;;;;;1999.90;999.90;;;;;;;22.76;79.04;98476.00;5015437;28;20050;-65
2021/06/26 07:16:23;;;;;;;1999.90;999.90;;;;;;;22.61;79.46;98480.00;5018630;28;20419;-65
2021/06/26 07:18:50;;;;;;;1999.90;999.90;;;;;;;23.02;78.71;98479.56;5018680;28;20050;-65
2021/06/26 07:21:20;;;;;;;1999.90;999.90;;;;;;;22.75;78.58;98473.56;5017050;28;20137;-65
2021/06/26 07:23:46;;;;;;;1999.90;999.90;;;;;;;23.14;78.26;98479.13;5020397;28;20054;-65
2021/06/26 07:26:13;;;;;;;1999.90;999.90;;;;;;;23.10;76.23;98481.16;5020707;28;20104;-65
2021/06/26 07:28:39;;;;;;;1999.90;999.90;;;;;;;23.38;75.79;98483.09;5014773;28;20050;-65
2021/06/26 07:31:06;;;;;;;1999.90;999.90;;;;;;;23.01;76.68;98480.75;5021435;28;20041;-64
2021/06/26 07:33:32;;;;;;;1999.90;999.90;;;;;;;22.75;77.50;98477.19;5025152;28;20181;-64
2021/06/26 07:35:59;;;;;;;1999.90;999.90;;;;;;;23.10;75.55;98478.34;5015691;28;20382;-65
2021/06/26 07:38:26;;;;;;;1999.90;999.90;;;;;;;22.64;78.61;98468.75;5020626;28;20578;-65
2021/06/26 07:40:52;;;;;;;1999.90;999.90;;;;;;;22.84;77.58;98471.94;5027378;28;20053;-65
2021/06/26 07:43:19;;;;;;;1999.90;999.90;;;;;;;22.82;76.46;98473.53;5013789;28;20049;-65
2021/06/26 07:45:45;;;;;;;1999.90;999.90;;;;;;;22.82;77.19;98465.09;5029960;28;20049;-65
2021/06/26 07:48:12;;;;;;;1999.90;999.90;;;;;;;23.32;76.00;98464.97;5016405;28;20076;-65
2021/06/26 07:50:39;;;;;;;1999.90;999.90;;;;;;;23.44;74.05;98463.72;5025198;28;20053;-65
2021/06/26 07:53:05;;;;;;;1999.90;999.90;;;;;;;23.94;75.69;98461.84;5014299;28;20099;-65
2021/06/26 07:55:33;;;;;;;1999.90;999.90;;;;;;;23.94;73.71;98461.84;5021139;28;20046;-64
2021/06/26 07:58:01;;;;;;;1999.90;999.90;;;;;;;24.12;71.01;98462.56;5014516;28;20060;-64
2021/06/26 08:00:27;;;;;;;1999.90;999.90;;;;;;;23.43;72.14;98458.47;5016468;28;20081;-64
2021/06/26 08:02:54;;;;;;;1999.90;999.90;;;;;;;24.18;72.82;98455.25;5020231;28;20131;-65
2021/06/26 08:05:20;;;;;;;1999.90;999.90;;;;;;;24.13;68.78;98461.34;5015950;28;20136;-64
2021/06/26 08:07:52;;;;;;;1999.90;999.90;;;;;;;23.06;70.49;98462.63;5013502;28;20050;-65
2021/06/26 08:10:19;;;;;;;1999.90;999.90;;;;;;;22.77;75.48;98455.03;5015712;28;20449;-65
2021/06/26 08:12:45;;;;;;;1999.90;999.90;;;;;;;24.03;71.46;98450.94;5015068;28;20156;-64
2021/06/26 08:15:12;;;;;;;1999.90;999.90;;;;;;;23.99;69.49;98459.41;5020765;28;20464;-65
2021/06/26 08:17:39;;;;;;;1999.90;999.90;;;;;;;24.10;68.62;98464.97;5015416;28;20147;-65
2021/06/26 08:20:06;;;;;;;1999.90;999.90;;;;;;;24.24;70.26;98459.22;5013909;28;20101;-65
2021/06/26 08:22:32;;;;;;;1999.90;999.90;;;;;;;23.85;71.01;98465.09;5019470;28;20062;-65
2021/06/26 08:24:59;;;;;;;1999.90;999.90;;;;;;;23.88;71.65;98459.50;5021637;28;20103;-65
2021/06/26 08:27:25;;;;;;;1999.90;999.90;;;;;;;23.78;72.15;98465.19;5021615;28;20050;-65
2021/06/26 08:29:52;;;;;;;1999.90;999.90;;;;;;;23.44;73.61;98454.47;5024542;28;20339;-66
2021/06/26 08:32:18;;;;;;;1999.90;999.90;;;;;;;23.23;75.48;98458.97;5021476;28;20154;-65
2021/06/26 08:34:45;;;;;;;1999.90;999.90;;;;;;;23.03;76.13;98455.78;5024568;28;21022;-66
2021/06/26 08:37:32;;;;;;;1999.90;999.90;;;;;;;23.08;76.62;98458.19;5012826;28;20088;-66
2021/06/26 08:39:58;;;;;;;1999.90;999.90;;;;;;;23.35;76.65;98455.69;5021546;28;20081;-65
2021/06/26 08:42:25;;;;;;;1999.90;999.90;;;;;;;23.09;78.07;98453.34;5014587;28;20050;-66
2021/06/26 08:44:57;;;;;;;1999.90;999.90;;;;;;;22.63;80.49;98447.41;5027518;28;20188;-65
2021/06/26 08:47:25;;;;;;;1999.90;999.90;;;;;;;22.41;80.17;98457.88;5014097;28;20049;-66
2021/06/26 08:49:52;;;;;;;1999.90;999.90;;;;;;;22.19;82.36;98450.63;5013731;28;20058;-66
2021/06/26 08:52:19;;;;;;;1999.90;999.90;;;;;;;22.40;82.02;98453.47;5025980;28;20045;-65
2021/06/26 08:54:52;;;;;;;1999.90;999.90;;;;;;;22.56;82.52;98452.25;5020864;28;20133;-65
2021/06/26 08:57:30;;;;;;;1999.90;999.90;;;;;;;22.50;80.72;98446.22;5026083;28;20078;-65
2021/06/26 09:00:00;;;;;;;1999.90;999.90;;;;;;;22.03;81.15;98448.19;5012815;28;20049;-66
2021/06/26 09:02:28;;;;;;;1999.90;999.90;;;;;;;22.05;79.75;98445.78;5010003;28;20046;-65
2021/06/26 09:04:56;;;;;;;1999.90;999.90;;;;;;;22.01;80.52;98444.97;5018919;28;20519;-65
2021/06/26 09:07:33;;;;;;;1999.90;999.90;;;;;;;22.01;81.88;98442.16;5015872;28;20112;-65
2021/06/26 09:10:12;;;;;;;1999.90;999.90;;;;;;;22.11;82.03;98441.38;5024513;28;20057;-65
2021/06/26 09:12:40;;;;;;;1999.90;999.90;;;;;;;22.45;81.93;98444.63;5014904;28;20054;-65
2021/06/26 09:15:08;;;;;;;1999.90;999.90;;;;;;;22.45;83.47;98449.44;5013280;28;20345;-65
2021/06/26 09:17:36;;;;;;;1999.90;999.90;;;;;;;22.79;80.46;98440.53;5019815;28;20354;-65
2021/06/26 09:20:09;;;;;;;1999.90;999.90;;;;;;;22.59;81.82;98443.00;5022497;28;20439;-65
2021/06/26 09:22:50;;;;;;;1999.90;999.90;;;;;;;22.64;79.45;98442.56;5019530;28;20118;-65
2021/06/26 09:25:34;;;;;;;1999.90;999.90;;;;;;;22.53;80.32;98433.34;5010067;28;20054;-65
2021/06/26 09:28:06;;;;;;;1999.90;999.90;;;;;;;22.65;78.29;98432.91;5010018;28;20085;-65
2021/06/26 09:30:41;;;;;;;1999.90;999.90;;;;;;;23.29;76.77;98428.31;5019165;28;20115;-65
2021/06/26 09:33:20;;;;;;;1999.90;999.90;;;;;;;24.24;74.43;98436.63;5013118;28;20138;-65
2021/06/26 09:36:00;;;;;;;1999.90;999.90;;;;;;;24.79;74.79;98437.75;5011342;28;20049;-64
2021/06/26 09:38:27;;;;;;;1999.90;999.90;;;;;;;26.04;67.46;98444.31;5021343;28;20076;-65
2021/06/26 09:40:53;;;;;;;1999.90;999.90;;;;;;;25.86;66.38;98442.53;5015575;28;20084;-65
2021/06/26 09:43:25;;;;;;;1999.90;999.90;;;;;;;25.15;67.06;98445.06;5017930;28;20392;-64
2021/06/26 09:46:04;;;;;;;1999.90;999.90;;;;;;;25.13;65.39;98445.47;5016698;28;20127;-65
2021/06/26 09:48:30;;;;;;;1999.90;999.90;;;;;;;25.33;67.66;98447.69;5014900;28;20085;-65
2021/06/26 09:50:57;;;;;;;1999.90;999.90;;;;;;;25.08;67.27;98437.44;5024934;28;20108;-65
2021/06/26 09:53:23;;;;;;;1999.90;999.90;;;;;;;25.01;66.66;98448.03;5009695;28;20151;-65
2021/06/26 09:55:53;;;;;;;1999.90;999.90;;;;;;;24.04;73.77;98444.03;5014531;28;20061;-66
2021/06/26 09:58:20;;;;;;;1999.90;999.90;;;;;;;23.96;76.03;98446.13;5023435;28;20324;-66
2021/06/26 10:00:47;;;;;;;1999.90;999.90;;;;;;;23.28;78.73;98447.25;5019548;28;20132;-66
2021/06/26 10:03:18;;;;;;;1999.90;999.90;;;;;;;23.33;79.26;98440.41;5020234;28;20116;-66
2021/06/26 10:05:47;;;;;;;1999.90;999.90;;;;;;;23.53;79.60;98441.50;5023434;28;20046;-67
2021/06/26 10:08:15;;;;;;;1999.90;999.90;;;;;;;23.65;78.26;98436.59;5029393;28;20049;-67
2021/06/26 10:10:42;;;;;;;1999.90;999.90;;;;;;;23.81;78.93;98439.72;5023541;28;20093;-66
2021/06/26 10:13:15;;;;;;;1999.90;999.90;;;;;;;23.80;77.06;98443.75;5024850;28;20132;-67
2021/06/26 10:15:42;;;;;;;1999.90;999.90;;;;;;;23.88;77.49;98439.72;5020566;28;20075;-66
2021/06/26 10:18:12;;;;;;;1999.90;999.90;;;;;;;24.03;78.25;98440.44;5022068;28;20042;-67
2021/06/26 10:20:39;;;;;;;1999.90;999.90;;;;;;;24.46;76.09;98429.97;5019880;28;20107;-66
2021/06/26 10:23:06;;;;;;;1999.90;999.90;;;;;;;24.73;82.01;98438.66;5025150;28;20056;-66
2021/06/26 10:25:40;;;;;;;1999.90;999.90;;;;;;;24.54;75.23;98437.97;5021632;28;20057;-65
2021/06/26 10:28:13;;;;;;;1999.90;999.90;;;;;;;25.15;71.22;98436.56;5021696;28;20053;-66
2021/06/26 10:30:40;;;;;;;1999.90;999.90;;;;;;;26.17;68.30;98431.97;5022611;28;20045;-66
2021/06/26 10:33:09;;;;;;;1999.90;999.90;;;;;;;26.74;68.29;98434.25;5021718;28;20053;-65
2021/06/26 10:35:50;;;;;;;1999.90;999.90;;;;;;;27.20;65.25;98432.59;5019402;28;20339;-66
2021/06/26 10:38:16;;;;;;;1999.90;999.90;;;;;;;27.58;61.84;98435.84;5018661;28;20427;-67
2021/06/26 10:40:45;;;;;;;1999.90;999.90;;;;;;;27.31;60.29;98441.66;5012817;28;20112;-67
2021/06/26 10:43:21;;;;;;;1999.90;999.90;;;;;;;26.75;60.76;98433.81;5016353;28;20398;-66
2021/06/26 10:46:08;;;;;;;1999.90;999.90;;;;;;;25.83;66.45;98440.56;5019145;28;20057;-65
2021/06/26 10:48:37;;;;;;;1999.90;999.90;;;;;;;26.04;64.38;98435.81;5020624;28;20092;-65
2021/06/26 10:51:08;;;;;;;1999.90;999.90;;;;;;;25.43;65.64;98438.28;5012942;28;20445;-65
2021/06/26 10:53:40;;;;;;;1999.90;999.90;;;;;;;25.79;63.30;98440.59;5017424;28;20300;-66
2021/06/26 10:56:14;;;;;;;1999.90;999.90;;;;;;;25.99;62.85;98435.09;5016138;28;20473;-66
2021/06/26 10:58:43;;;;;;;1999.90;999.90;;;;;;;25.51;61.69;98447.47;5020853;28;20054;-66